createdAt,value
2017-10-11T00:03:19.363Z,0
2017-10-11T00:13:19.328Z,0
2017-10-11T00:23:19.418Z,0
2017-10-11T00:33:19.350Z,0
2017-10-11T00:43:19.337Z,0
2017-10-11T00:53:19.396Z,0
2017-10-11T01:03:19.344Z,0
2017-10-11T01:13:19.363Z,0
2017-10-11T01:23:19.361Z,0
2017-10-11T01:33:19.472Z,0
2017-10-11T01:43:19.388Z,0
2017-10-11T01:53:19.474Z,0
2017-10-11T02:03:19.440Z,0
2017-10-11T02:13:19.750Z,0
2017-10-11T02:23:19.449Z,0
2017-10-11T02:33:19.551Z,0
2017-10-11T02:43:19.489Z,0
2017-10-11T02:53:19.515Z,0
2017-10-11T03:03:19.523Z,0
2017-10-11T03:13:19.550Z,0
2017-10-11T03:23:19.522Z,0
2017-10-11T03:33:19.576Z,0
2017-10-11T03:43:19.550Z,0
2017-10-11T03:53:19.601Z,0
2017-10-11T04:03:19.603Z,0
2017-10-11T04:13:19.513Z,0
2017-10-11T04:23:19.592Z,0
2017-10-11T04:33:19.544Z,0
2017-10-11T04:43:19.603Z,0
2017-10-11T04:53:19.594Z,0
2017-10-11T05:03:19.820Z,0
2017-10-11T05:13:19.659Z,0
2017-10-11T05:23:19.670Z,4
2017-10-11T05:33:19.652Z,12
2017-10-11T05:43:19.701Z,64
2017-10-11T05:53:19.658Z,108
2017-10-11T06:03:19.749Z,320
2017-10-11T06:13:19.646Z,776
2017-10-11T06:23:19.672Z,672
2017-10-11T06:33:19.656Z,732
2017-10-11T06:43:19.682Z,776
2017-10-11T06:53:19.698Z,848
2017-10-11T07:03:19.762Z,1420
2017-10-11T07:13:20.032Z,2420
2017-10-11T07:23:19.714Z,2512
2017-10-11T07:33:19.749Z,2128
2017-10-11T07:43:19.800Z,2884
2017-10-11T07:53:19.760Z,3624
2017-10-11T08:03:19.735Z,2724
2017-10-11T08:13:19.730Z,2760
2017-10-11T08:23:19.794Z,3872
2017-10-11T08:33:19.858Z,4548
2017-10-11T08:43:19.811Z,5068
2017-10-11T08:53:19.778Z,3668
2017-10-11T09:03:19.845Z,3456
2017-10-11T09:13:19.836Z,6612
2017-10-11T09:23:19.883Z,8072
2017-10-11T09:33:19.855Z,6988
2017-10-11T09:43:19.845Z,6892
2017-10-11T09:53:20.038Z,4692
2017-10-11T10:13:19.996Z,3516
2017-10-11T10:33:19.963Z,3924
2017-10-11T10:43:19.969Z,3780
2017-10-11T10:53:21.084Z,7052
2017-10-11T11:03:32.351Z,8960
2017-10-11T11:13:20.951Z,15168
2017-10-11T11:23:19.977Z,9084
2017-10-11T11:33:20.027Z,6332
2017-10-11T11:43:19.966Z,6388
2017-10-11T11:53:19.970Z,8568
2017-10-11T12:03:19.938Z,4968
2017-10-11T12:13:20.029Z,2932
2017-10-11T12:23:20.040Z,2332
2017-10-11T12:33:20.037Z,5744
2017-10-11T12:43:20.028Z,9352
2017-10-11T12:53:20.072Z,8936
2017-10-11T13:03:20.096Z,8184
2017-10-11T13:13:20.074Z,8360
2017-10-11T13:23:20.099Z,7356
2017-10-11T13:33:20.073Z,7464
2017-10-11T13:43:20.114Z,5632
2017-10-11T13:53:20.041Z,5500
2017-10-11T14:03:20.042Z,5128
2017-10-11T14:13:20.067Z,5308
2017-10-11T14:23:20.163Z,3812
2017-10-11T14:33:20.077Z,4660
2017-10-11T14:43:20.121Z,4448
2017-10-11T14:53:20.067Z,3568
2017-10-11T15:03:20.086Z,3236
2017-10-11T15:13:20.031Z,2924
2017-10-11T15:23:20.109Z,2292
2017-10-11T15:33:20.063Z,1440
2017-10-11T15:43:20.109Z,1168
2017-10-11T15:53:20.130Z,728
2017-10-11T16:03:20.157Z,664
2017-10-11T16:13:20.263Z,476
2017-10-11T16:23:20.199Z,232
2017-10-11T16:33:20.223Z,132
2017-10-11T16:43:20.221Z,108
2017-10-11T16:53:20.096Z,36
2017-10-11T17:03:20.156Z,8
2017-10-11T17:13:20.168Z,0
2017-10-11T17:23:20.226Z,0
2017-10-11T17:33:20.160Z,0
2017-10-11T17:43:20.322Z,0
2017-10-11T17:53:20.214Z,4
2017-10-11T18:03:20.195Z,4
2017-10-11T18:13:20.247Z,0
2017-10-11T18:23:20.204Z,0
2017-10-11T18:33:20.218Z,0
2017-10-11T18:43:20.224Z,0
2017-10-11T18:53:20.305Z,4
2017-10-11T19:03:20.351Z,0
2017-10-11T19:13:20.347Z,0
2017-10-11T19:23:20.309Z,0
2017-10-11T19:33:20.414Z,0
2017-10-11T19:43:20.385Z,0
2017-10-11T19:53:20.355Z,0
2017-10-11T20:03:20.484Z,0
2017-10-11T20:13:21.395Z,0
2017-10-11T20:23:20.367Z,4
2017-10-11T20:33:20.411Z,0
2017-10-11T20:43:20.490Z,0
2017-10-11T20:53:20.426Z,0
2017-10-11T21:03:21.451Z,0
2017-10-11T21:13:20.478Z,0
2017-10-11T21:23:20.385Z,0
2017-10-11T21:33:20.457Z,0
2017-10-11T21:43:20.395Z,0
2017-10-11T21:53:20.513Z,0
2017-10-11T22:03:20.442Z,0
2017-10-11T22:13:20.186Z,0
2017-10-11T22:23:20.333Z,4
2017-10-11T22:33:20.383Z,0
2017-10-11T22:43:20.347Z,0
2017-10-11T22:53:20.277Z,0
2017-10-11T23:03:20.220Z,0
2017-10-11T23:13:20.228Z,0
2017-10-11T23:23:20.210Z,0
2017-10-11T23:33:20.270Z,0
2017-10-11T23:43:20.218Z,0
2017-10-11T23:53:20.294Z,0
